Time;durP1;ratioP1;P1;durP2;ratioP2;P2;SDS_P1;SDS_P2;PMS_P1;PMS_P2;Temp;Humidity;BMP_temperature;BMP_pressure;BME280_temperature;BME280_humidity;BME280_pressure;Samples;Min_cycle;Max_cycle;Signal;HPM_P1;HPM_P2
2020/12/23 00:00:15;;;;;;;38.45;29.63;;;12.40;98.60;;;;;;5062260;28;20501;-64
2020/12/23 00:02:42;;;;;;;39.05;29.50;;;12.40;98.40;;;;;;5066041;28;20032;-64
2020/12/23 00:05:10;;;;;;;37.75;30.42;;;12.40;98.20;;;;;;5068348;28;20029;-64
2020/12/23 00:07:36;;;;;;;38.22;30.88;;;12.40;98.30;;;;;;5068723;28;20025;-64
2020/12/23 00:10:04;;;;;;;41.53;31.00;;;12.40;98.40;;;;;;5065240;28;20031;-64
2020/12/23 00:12:30;;;;;;;35.85;30.08;;;12.40;98.40;;;;;;5069450;28;20028;-64
2020/12/23 00:14:56;;;;;;;37.67;28.20;;;12.40;98.00;;;;;;5063539;28;20032;-65
2020/12/23 00:17:21;;;;;;;40.13;31.05;;;12.40;98.40;;;;;;5062966;28;20036;-64
2020/12/23 00:19:48;;;;;;;44.67;30.98;;;12.40;98.30;;;;;;5062144;28;20076;-64
2020/12/23 00:22:16;;;;;;;37.97;28.60;;;12.40;98.30;;;;;;5066573;28;20460;-64
2020/12/23 00:24:43;;;;;;;35.65;29.88;;;12.40;98.40;;;;;;5061878;28;20025;-64
2020/12/23 00:27:09;;;;;;;43.20;30.88;;;12.40;98.30;;;;;;5065308;28;20505;-64
2020/12/23 00:29:34;;;;;;;39.70;30.88;;;12.40;98.40;;;;;;5062748;28;20059;-64
2020/12/23 00:32:00;;;;;;;37.60;29.23;;;12.50;98.30;;;;;;5051244;28;20139;-64
2020/12/23 00:34:26;;;;;;;40.28;30.42;;;12.50;98.50;;;;;;5066938;28;20095;-64
2020/12/23 00:36:56;;;;;;;39.08;31.38;;;12.50;98.40;;;;;;5064889;28;20045;-64
2020/12/23 00:39:22;;;;;;;41.28;30.98;;;12.40;98.10;;;;;;5060215;28;20033;-64
2020/12/23 00:41:48;;;;;;;39.70;29.83;;;12.40;98.10;;;;;;5065523;28;20034;-64
2020/12/23 00:44:15;;;;;;;39.33;31.38;;;12.40;98.50;;;;;;5061795;28;20025;-64
2020/12/23 00:46:41;;;;;;;41.13;31.13;;;12.40;98.20;;;;;;5062763;28;20033;-64
2020/12/23 00:49:07;;;;;;;42.22;30.55;;;12.40;97.90;;;;;;5066495;28;20024;-64
2020/12/23 00:51:33;;;;;;;40.05;31.95;;;12.40;98.40;;;;;;5064881;28;20067;-64
2020/12/23 00:53:59;;;;;;;41.00;32.03;;;12.40;98.30;;;;;;5064931;28;20049;-64
2020/12/23 00:56:24;;;;;;;42.65;31.77;;;12.40;98.50;;;;;;5061835;28;20036;-64
2020/12/23 00:58:50;;;;;;;39.95;31.10;;;12.40;98.20;;;;;;5061807;28;20039;-64
2020/12/23 01:01:16;;;;;;;44.70;31.80;;;12.30;98.30;;;;;;5043535;28;20024;-64
2020/12/23 01:03:42;;;;;;;40.78;31.48;;;12.30;98.60;;;;;;5067219;28;20031;-64
2020/12/23 01:06:12;;;;;;;40.88;33.45;;;12.30;98.00;;;;;;5060456;28;20032;-64
2020/12/23 01:08:38;;;;;;;39.72;31.23;;;12.30;97.40;;;;;;5066239;28;20028;-65
2020/12/23 01:11:11;;;;;;;40.25;32.28;;;12.30;98.00;;;;;;5062364;28;20025;-64
2020/12/23 01:13:40;;;;;;;42.60;33.42;;;12.30;97.10;;;;;;5062855;28;20021;-64
2020/12/23 01:16:06;;;;;;;46.83;34.13;;;12.30;97.90;;;;;;5042678;28;20070;-64
2020/12/23 01:18:32;;;;;;;44.78;32.95;;;12.30;98.50;;;;;;5064174;28;20029;-64
2020/12/23 01:20:57;;;;;;;48.17;34.13;;;12.30;97.80;;;;;;5059569;28;20032;-64
2020/12/23 01:23:23;;;;;;;45.85;34.35;;;12.20;98.50;;;;;;5044031;28;20039;-64
2020/12/23 01:25:53;;;;;;;45.15;32.83;;;12.30;98.00;;;;;;5045330;28;20389;-64
2020/12/23 01:28:19;;;;;;;46.90;35.20;;;12.30;98.20;;;;;;5062536;28;20544;-65
2020/12/23 01:30:45;;;;;;;49.90;34.95;;;12.30;98.40;;;;;;5045406;28;20028;-64
2020/12/23 01:33:10;;;;;;;49.22;35.67;;;12.30;98.50;;;;;;5059730;28;20032;-64
2020/12/23 01:35:36;;;;;;;50.72;36.63;;;12.30;98.10;;;;;;5064974;28;20028;-64
2020/12/23 01:38:02;;;;;;;46.72;35.28;;;12.30;98.00;;;;;;5060288;28;20486;-64
2020/12/23 01:40:27;;;;;;;49.50;36.85;;;12.30;98.40;;;;;;5065193;28;20029;-64
2020/12/23 01:42:53;;;;;;;47.10;34.35;;;12.30;97.10;;;;;;5062611;28;20039;-64
2020/12/23 01:45:19;;;;;;;54.50;37.35;;;12.30;98.20;;;;;;5065293;28;20028;-64
2020/12/23 01:47:45;;;;;;;51.72;36.63;;;12.30;97.70;;;;;;5061526;28;20035;-64
2020/12/23 01:50:14;;;;;;;54.97;36.65;;;12.30;97.90;;;;;;5064238;28;20544;-64
2020/12/23 01:52:40;;;;;;;56.10;36.83;;;12.30;97.50;;;;;;5046361;28;20089;-64
2020/12/23 01:55:11;;;;;;;50.60;35.58;;;12.30;97.30;;;;;;5061883;28;20490;-64
2020/12/23 01:57:37;;;;;;;51.53;36.90;;;12.30;97.80;;;;;;5061220;28;20430;-64
2020/12/23 02:00:46;;;;;;;48.08;34.95;;;12.20;98.10;;;;;;5049279;28;20124;-64
2020/12/23 02:03:13;;;;;;;48.00;34.65;;;12.20;96.80;;;;;;5057202;28;20044;-64
2020/12/23 02:05:42;;;;;;;44.97;33.85;;;12.20;98.40;;;;;;5040842;28;20016;-63
2020/12/23 02:08:10;;;;;;;52.22;37.67;;;12.20;97.80;;;;;;5059293;28;20052;-64
2020/12/23 02:10:37;;;;;;;53.90;37.70;;;12.10;97.80;;;;;;5064311;28;20106;-64
2020/12/23 02:13:02;;;;;;;53.92;35.15;;;12.20;98.20;;;;;;5064765;28;20522;-64
2020/12/23 02:15:28;;;;;;;51.75;37.33;;;12.20;98.00;;;;;;5062606;28;20029;-64
2020/12/23 02:17:54;;;;;;;47.08;34.85;;;12.20;98.00;;;;;;5060591;28;20557;-64
2020/12/23 02:20:41;;;;;;;51.22;36.10;;;12.20;97.60;;;;;;5067871;28;20245;-63
2020/12/23 02:23:07;;;;;;;51.30;36.08;;;12.20;96.80;;;;;;5059800;28;20025;-63
2020/12/23 02:25:33;;;;;;;51.58;37.00;;;12.20;97.80;;;;;;5062243;28;20040;-64
2020/12/23 02:27:58;;;;;;;52.80;36.28;;;12.20;97.90;;;;;;5061191;28;20394;-64
2020/12/23 02:33:45;;;;;;;48.80;35.47;;;12.20;96.70;;;;;;5056069;28;20035;-63
2020/12/23 02:36:11;;;;;;;49.78;34.25;;;12.20;98.60;;;;;;5043066;28;20410;-64
2020/12/23 02:38:37;;;;;;;48.58;34.60;;;12.20;98.30;;;;;;5060809;28;20029;-64
2020/12/23 02:41:02;;;;;;;50.67;34.58;;;12.20;98.00;;;;;;5057325;28;20025;-64
2020/12/23 02:43:29;;;;;;;49.42;35.17;;;12.20;98.10;;;;;;5058212;28;20028;-64
2020/12/23 02:45:54;;;;;;;50.47;37.17;;;12.20;97.80;;;;;;5058009;28;20036;-64
2020/12/23 02:48:20;;;;;;;49.08;34.13;;;12.30;97.90;;;;;;5063126;28;20386;-64
2020/12/23 02:50:46;;;;;;;48.92;35.15;;;12.30;98.00;;;;;;5058239;28;20040;-64
2020/12/23 02:53:11;;;;;;;47.75;35.15;;;12.20;97.90;;;;;;5060809;28;20021;-64
2020/12/23 02:55:37;;;;;;;44.92;32.30;;;12.20;97.40;;;;;;5060636;28;20032;-65
2020/12/23 02:58:03;;;;;;;48.70;34.78;;;12.20;97.70;;;;;;5060261;28;20033;-64
2020/12/23 03:00:28;;;;;;;42.45;32.88;;;12.20;97.70;;;;;;5058920;28;20031;-64
2020/12/23 03:02:54;;;;;;;44.88;33.10;;;12.20;97.90;;;;;;5060939;28;20028;-64
2020/12/23 03:05:20;;;;;;;42.47;32.28;;;12.20;97.80;;;;;;5059908;28;20446;-64
2020/12/23 03:07:45;;;;;;;46.35;32.05;;;12.20;97.50;;;;;;5063170;28;20032;-65
2020/12/23 03:10:11;;;;;;;38.58;31.23;;;12.20;97.70;;;;;;5059051;28;20336;-64
2020/12/23 03:12:37;;;;;;;45.17;32.28;;;12.20;97.40;;;;;;5063333;28;20032;-64
2020/12/23 03:15:03;;;;;;;41.03;32.67;;;12.20;97.40;;;;;;5060686;28;20021;-64
2020/12/23 03:17:29;;;;;;;46.38;32.15;;;12.20;97.70;;;;;;5065515;28;20033;-64
2020/12/23 03:19:54;;;;;;;49.58;32.65;;;12.20;97.60;;;;;;5063606;28;20506;-64
2020/12/23 03:22:21;;;;;;;42.55;31.55;;;12.20;97.30;;;;;;5061362;28;20441;-64
2020/12/23 03:24:47;;;;;;;44.53;34.10;;;12.20;97.40;;;;;;5045402;28;20125;-64
2020/12/23 03:27:12;;;;;;;48.47;34.50;;;12.20;97.60;;;;;;5063381;28;20525;-64
2020/12/23 03:29:38;;;;;;;47.50;34.10;;;12.20;97.70;;;;;;5073452;28;20135;-64
2020/12/23 03:32:04;;;;;;;45.10;33.20;;;12.00;97.20;;;;;;5064350;28;20082;-64
2020/12/23 03:34:29;;;;;;;49.95;33.92;;;12.10;97.70;;;;;;5069051;28;20474;-64
2020/12/23 03:36:55;;;;;;;47.58;33.10;;;12.10;98.10;;;;;;5045824;28;20127;-64
2020/12/23 03:39:20;;;;;;;43.92;32.63;;;12.20;97.80;;;;;;5049703;28;20454;-64
2020/12/23 03:41:46;;;;;;;47.85;33.10;;;12.10;97.60;;;;;;5045295;28;20044;-64
2020/12/23 03:44:12;;;;;;;44.38;30.42;;;12.10;97.90;;;;;;5051070;28;20024;-64
2020/12/23 03:46:37;;;;;;;42.88;31.65;;;12.20;97.50;;;;;;5039363;28;20120;-64
2020/12/23 03:49:03;;;;;;;41.90;30.80;;;12.10;97.60;;;;;;5044784;28;20033;-64
2020/12/23 03:51:29;;;;;;;43.15;32.00;;;12.10;97.50;;;;;;5042832;28;20083;-64
2020/12/23 03:53:55;;;;;;;48.08;34.58;;;12.10;97.40;;;;;;5050129;28;20037;-64
2020/12/23 03:56:20;;;;;;;41.35;30.90;;;12.10;97.50;;;;;;5041024;28;20035;-64
2020/12/23 03:58:46;;;;;;;44.35;33.28;;;12.20;97.40;;;;;;5043414;28;20149;-64
2020/12/23 04:01:12;;;;;;;46.75;33.97;;;12.10;97.40;;;;;;5047343;28;20074;-64
2020/12/23 04:03:37;;;;;;;44.10;32.35;;;12.10;97.80;;;;;;5043199;28;20029;-64
2020/12/23 04:06:03;;;;;;;49.13;33.72;;;12.10;97.60;;;;;;5046469;28;20044;-64
2020/12/23 04:08:29;;;;;;;45.35;33.55;;;12.10;97.30;;;;;;5042415;28;20036;-64
2020/12/23 04:10:54;;;;;;;48.15;33.92;;;12.20;98.10;;;;;;5042925;28;20025;-63
2020/12/23 04:13:20;;;;;;;45.40;33.55;;;12.20;97.80;;;;;;5043245;28;20120;-64
2020/12/23 04:15:45;;;;;;;49.75;34.28;;;12.20;97.20;;;;;;5041909;28;20407;-64
2020/12/23 04:18:11;;;;;;;43.85;32.22;;;12.20;97.70;;;;;;5040391;28;20073;-64
2020/12/23 04:20:37;;;;;;;45.78;32.05;;;12.20;96.80;;;;;;5045161;28;20516;-63
2020/12/23 04:23:03;;;;;;;45.38;32.53;;;12.20;97.50;;;;;;5044177;28;20028;-64
2020/12/23 04:25:28;;;;;;;41.75;31.15;;;12.20;97.40;;;;;;5048189;28;20464;-64
2020/12/23 04:27:54;;;;;;;49.13;34.25;;;12.10;97.40;;;;;;5038152;28;20102;-64
2020/12/23 04:30:19;;;;;;;50.28;34.63;;;12.20;97.10;;;;;;5045200;28;20382;-64
2020/12/23 04:32:45;;;;;;;42.53;32.10;;;12.20;97.50;;;;;;5041907;28;20475;-64
2020/12/23 04:35:11;;;;;;;43.50;31.63;;;12.20;97.30;;;;;;5042059;28;20032;-64
2020/12/23 04:37:36;;;;;;;44.25;31.70;;;12.20;96.70;;;;;;5062118;28;20417;-64
2020/12/23 04:40:04;;;;;;;45.80;31.48;;;12.10;97.00;;;;;;5059064;28;20469;-63
2020/12/23 04:42:31;;;;;;;42.92;30.75;;;12.10;96.30;;;;;;5061421;28;20036;-64
2020/12/23 04:44:57;;;;;;;46.67;33.08;;;12.10;97.00;;;;;;5061280;28;20466;-64
2020/12/23 04:47:25;;;;;;;40.60;29.67;;;12.10;97.10;;;;;;5063153;28;20115;-64
2020/12/23 04:49:54;;;;;;;40.60;30.48;;;12.10;96.70;;;;;;5039541;28;20513;-63
2020/12/23 04:52:23;;;;;;;40.75;27.73;;;12.10;96.90;;;;;;5062675;28;20390;-64
2020/12/23 04:54:50;;;;;;;38.95;28.40;;;12.10;97.10;;;;;;5066381;28;20024;-64
2020/12/23 04:57:17;;;;;;;34.75;28.75;;;12.10;97.10;;;;;;5067392;28;20532;-64
2020/12/23 04:59:43;;;;;;;38.55;26.58;;;12.20;97.00;;;;;;5062884;28;20154;-64
2020/12/23 05:02:09;;;;;;;34.13;26.42;;;12.20;97.00;;;;;;5066717;28;20032;-64
2020/12/23 05:04:35;;;;;;;39.03;29.27;;;12.20;97.20;;;;;;5059925;28;20108;-64
2020/12/23 05:07:05;;;;;;;40.33;29.13;;;12.20;96.80;;;;;;5059147;28;20028;-64
2020/12/23 05:09:31;;;;;;;41.58;29.25;;;12.20;96.30;;;;;;5060456;28;20029;-64
2020/12/23 05:11:58;;;;;;;39.25;28.45;;;12.10;97.00;;;;;;5064119;28;20103;-64
2020/12/23 05:14:26;;;;;;;47.72;30.45;;;12.00;96.30;;;;;;5061388;28;20047;-64
2020/12/23 05:16:52;;;;;;;40.92;29.40;;;12.00;96.60;;;;;;5061548;28;20038;-64
2020/12/23 05:19:19;;;;;;;42.42;28.48;;;12.10;96.70;;;;;;5063733;28;20028;-64
2020/12/23 05:21:45;;;;;;;41.03;28.25;;;12.10;97.20;;;;;;5058286;28;20036;-64
2020/12/23 05:24:12;;;;;;;37.92;28.73;;;12.20;97.00;;;;;;5063508;28;20474;-64
2020/12/23 05:26:43;;;;;;;37.67;28.38;;;12.10;97.20;;;;;;5060075;28;20048;-63
2020/12/23 05:29:10;;;;;;;42.50;29.80;;;12.20;96.00;;;;;;5049060;28;20036;-64
2020/12/23 05:31:36;;;;;;;38.40;28.30;;;12.10;96.80;;;;;;5062488;28;20020;-64
2020/12/23 05:34:04;;;;;;;44.17;29.88;;;12.10;97.10;;;;;;5062736;28;20040;-64
2020/12/23 05:36:31;;;;;;;38.50;24.38;;;12.10;96.70;;;;;;5059416;28;20045;-64
2020/12/23 05:38:58;;;;;;;30.10;23.85;;;12.20;96.80;;;;;;5061695;28;20021;-64
2020/12/23 05:41:24;;;;;;;26.02;20.45;;;12.20;96.60;;;;;;5057311;28;20126;-64
2020/12/23 05:43:50;;;;;;;25.65;20.25;;;12.20;96.00;;;;;;5064255;28;20032;-64
2020/12/23 05:46:15;;;;;;;28.10;21.00;;;12.20;96.60;;;;;;5060819;28;20048;-65
2020/12/23 05:48:41;;;;;;;26.42;20.90;;;12.10;96.10;;;;;;5060356;28;20432;-64
2020/12/23 05:51:09;;;;;;;32.20;22.13;;;12.10;96.10;;;;;;5062575;28;20021;-64
2020/12/23 05:53:37;;;;;;;33.55;22.70;;;12.20;95.20;;;;;;5062724;28;20056;-63
2020/12/23 05:56:05;;;;;;;29.48;20.92;;;12.10;96.20;;;;;;5064548;28;20094;-63
2020/12/23 05:58:38;;;;;;;29.67;21.23;;;12.10;95.60;;;;;;5057365;28;20070;-64
2020/12/23 06:01:06;;;;;;;32.10;22.67;;;12.20;96.00;;;;;;5059694;28;20032;-63
2020/12/23 06:03:43;;;;;;;27.90;20.92;;;12.20;96.10;;;;;;5059821;28;20334;-64
2020/12/23 06:06:11;;;;;;;34.08;24.17;;;12.20;94.90;;;;;;5060817;28;20032;-64
2020/12/23 06:08:39;;;;;;;30.55;22.60;;;12.10;95.30;;;;;;5059877;28;20024;-64
2020/12/23 06:11:23;;;;;;;34.42;24.23;;;12.00;95.70;;;;;;5064153;28;20040;-64
2020/12/23 06:14:10;;;;;;;46.30;28.65;;;12.10;96.50;;;;;;5059181;28;20472;-64
2020/12/23 06:16:43;;;;;;;39.80;28.95;;;12.00;94.80;;;;;;5059989;28;20040;-64
2020/12/23 06:19:29;;;;;;;41.78;30.63;;;12.00;96.60;;;;;;5060380;28;20025;-64
2020/12/23 06:21:57;;;;;;;46.08;30.83;;;12.10;96.60;;;;;;5061435;28;20119;-64
2020/12/23 06:24:24;;;;;;;45.80;32.13;;;12.10;97.00;;;;;;5061336;28;20102;-63
2020/12/23 06:26:54;;;;;;;54.47;36.58;;;12.10;96.30;;;;;;5066322;28;20028;-64
2020/12/23 06:29:24;;;;;;;46.75;34.80;;;12.00;96.80;;;;;;5043784;28;20992;-64
2020/12/23 06:32:01;;;;;;;48.60;35.55;;;12.10;97.30;;;;;;5065449;28;20039;-64
2020/12/23 06:34:32;;;;;;;52.22;36.67;;;12.10;97.10;;;;;;5059061;28;20031;-64
2020/12/23 06:36:59;;;;;;;51.13;37.20;;;12.00;97.00;;;;;;5060661;28;20041;-64
2020/12/23 06:39:38;;;;;;;50.72;37.55;;;12.10;97.10;;;;;;5062532;28;20052;-64
2020/12/23 06:42:04;;;;;;;54.17;36.20;;;12.10;96.40;;;;;;5062532;28;20505;-64
2020/12/23 06:44:42;;;;;;;53.50;36.75;;;12.00;97.00;;;;;;5059301;28;20111;-63
2020/12/23 06:47:13;;;;;;;49.72;35.63;;;12.00;96.90;;;;;;5061665;28;20033;-64
2020/12/23 06:49:45;;;;;;;47.05;36.58;;;12.10;96.90;;;;;;5063204;28;20151;-64
2020/12/23 06:52:23;;;;;;;53.10;37.38;;;12.00;96.50;;;;;;5065058;28;20491;-63
2020/12/23 06:55:14;;;;;;;50.55;36.47;;;12.00;96.60;;;;;;5069773;28;20032;-63
2020/12/23 06:57:40;;;;;;;48.33;36.13;;;12.00;97.00;;;;;;5070800;28;20063;-64
2020/12/23 07:00:14;;;;;;;50.00;37.45;;;11.80;97.20;;;;;;5069622;28;20021;-63
2020/12/23 07:02:46;;;;;;;48.43;36.63;;;11.90;97.50;;;;;;5068291;28;20032;-64
2020/12/23 07:05:22;;;;;;;51.63;37.67;;;12.00;98.10;;;;;;5065277;28;20009;-63
2020/12/23 07:07:59;;;;;;;52.13;38.90;;;11.80;97.90;;;;;;5067872;28;20035;-64
2020/12/23 07:10:27;;;;;;;54.28;39.20;;;12.00;97.20;;;;;;5057824;28;20025;-63
2020/12/23 07:12:58;;;;;;;57.70;40.13;;;12.00;98.20;;;;;;5064807;28;20109;-63
2020/12/23 07:15:28;;;;;;;53.50;39.85;;;12.00;98.20;;;;;;5065214;28;20157;-63
2020/12/23 07:18:12;;;;;;;54.03;41.42;;;12.00;97.90;;;;;;5062269;28;20071;-64
2020/12/23 07:20:39;;;;;;;51.90;38.80;;;12.00;97.70;;;;;;5064911;28;20078;-63
2020/12/23 07:23:08;;;;;;;50.65;39.28;;;11.90;98.10;;;;;;5063178;28;20033;-63
2020/12/23 07:25:38;;;;;;;55.08;40.35;;;12.00;98.00;;;;;;5065641;28;20075;-63
2020/12/23 07:28:07;;;;;;;56.65;40.30;;;12.00;97.80;;;;;;5066001;28;20040;-63
2020/12/23 07:30:35;;;;;;;56.33;41.35;;;12.00;97.90;;;;;;5068046;28;20028;-63
2020/12/23 07:33:04;;;;;;;52.53;39.53;;;12.00;98.20;;;;;;5070332;28;20029;-63
2020/12/23 07:35:30;;;;;;;58.78;42.45;;;12.10;98.00;;;;;;5065710;28;20032;-64
2020/12/23 07:38:01;;;;;;;57.83;40.95;;;12.10;98.10;;;;;;5067678;28;20060;-64
2020/12/23 07:40:28;;;;;;;53.53;39.15;;;12.00;97.60;;;;;;5048656;28;20017;-64
2020/12/23 07:42:56;;;;;;;58.22;41.78;;;12.00;97.80;;;;;;5067758;28;20073;-63
2020/12/23 07:45:23;;;;;;;56.83;39.42;;;12.10;98.20;;;;;;5065040;28;20373;-63
2020/12/23 07:48:06;;;;;;;57.17;40.50;;;12.10;97.70;;;;;;5062440;28;20029;-63
2020/12/23 07:50:34;;;;;;;59.22;41.38;;;12.10;96.60;;;;;;5049988;28;20024;-63
2020/12/23 07:53:30;;;;;;;57.75;40.28;;;12.20;98.00;;;;;;5051221;28;20036;-63
2020/12/23 07:56:07;;;;;;;57.75;40.55;;;12.20;96.90;;;;;;5031976;28;20175;-63
2020/12/23 07:58:34;;;;;;;55.90;41.35;;;12.10;97.30;;;;;;5068504;28;20051;-63
2020/12/23 08:01:00;;;;;;;55.90;41.78;;;12.20;98.10;;;;;;5069169;28;20021;-62
2020/12/23 08:03:27;;;;;;;56.63;40.38;;;12.20;97.50;;;;;;5065395;28;20032;-63
2020/12/23 08:06:12;;;;;;;54.17;39.92;;;12.20;97.50;;;;;;5068397;28;20028;-63
2020/12/23 08:08:39;;;;;;;60.22;40.38;;;12.30;96.70;;;;;;5064454;28;20028;-62
2020/12/23 08:11:11;;;;;;;59.60;42.15;;;12.30;97.50;;;;;;5065165;28;20218;-63
2020/12/23 08:13:38;;;;;;;63.90;43.45;;;12.30;96.80;;;;;;5066420;28;20024;-63
2020/12/23 08:16:07;;;;;;;66.78;45.00;;;12.30;97.10;;;;;;5063900;28;20028;-63
2020/12/23 08:18:33;;;;;;;60.13;41.03;;;12.30;97.20;;;;;;5048896;28;20118;-63
2020/12/23 08:21:13;;;;;;;61.55;43.03;;;12.30;97.70;;;;;;5064813;28;20014;-63
2020/12/23 08:23:39;;;;;;;64.75;44.05;;;12.30;96.40;;;;;;5060226;28;20036;-63
2020/12/23 08:26:06;;;;;;;67.20;43.70;;;12.20;97.50;;;;;;5069321;28;20021;-63
2020/12/23 08:28:37;;;;;;;65.07;43.80;;;12.20;97.50;;;;;;5063129;28;20367;-63
2020/12/23 08:31:04;;;;;;;62.17;43.15;;;12.30;97.70;;;;;;5065527;28;20033;-63
2020/12/23 08:33:32;;;;;;;60.53;41.22;;;12.30;97.40;;;;;;5049994;28;20038;-62
2020/12/23 08:36:03;;;;;;;60.60;43.72;;;12.30;97.60;;;;;;5067121;28;20027;-63
2020/12/23 08:38:29;;;;;;;59.80;43.40;;;12.30;97.50;;;;;;5063809;28;20068;-63
2020/12/23 08:40:57;;;;;;;58.50;42.30;;;12.30;97.30;;;;;;5051711;28;20553;-62
2020/12/23 08:43:30;;;;;;;60.78;42.58;;;12.30;97.40;;;;;;5065070;28;20103;-63
2020/12/23 08:46:00;;;;;;;63.63;43.10;;;12.40;97.00;;;;;;5068793;28;20524;-64
2020/12/23 08:48:30;;;;;;;58.95;42.85;;;12.30;97.30;;;;;;5064551;28;20043;-63
2020/12/23 08:51:00;;;;;;;66.57;45.10;;;12.40;97.10;;;;;;5050319;28;20363;-63
2020/12/23 08:53:38;;;;;;;64.25;43.95;;;12.40;97.10;;;;;;5063317;28;20035;-64
2020/12/23 08:56:25;;;;;;;62.88;45.38;;;12.50;96.30;;;;;;5065896;28;20364;-64
2020/12/23 08:58:57;;;;;;;63.92;46.25;;;12.50;96.30;;;;;;5055661;28;20452;-64
2020/12/23 09:01:24;;;;;;;62.38;45.20;;;12.40;97.40;;;;;;5065474;28;20382;-64
2020/12/23 09:04:05;;;;;;;67.60;47.38;;;12.30;97.00;;;;;;5043399;28;20433;-63
2020/12/23 09:06:31;;;;;;;67.75;47.35;;;12.30;96.10;;;;;;5064208;28;20020;-63
2020/12/23 09:09:17;;;;;;;66.15;47.03;;;12.40;97.30;;;;;;5056187;28;20024;-63
2020/12/23 09:11:46;;;;;;;;;;;12.40;97.00;;;;;;5070283;28;20071;-63
2020/12/23 09:14:34;;;;;;;60.83;44.35;;;12.30;96.00;;;;;;5066437;28;19912;-63
2020/12/23 09:17:04;;;;;;;63.45;45.78;;;12.40;97.80;;;;;;5061051;28;20051;-63
2020/12/23 09:19:44;;;;;;;65.00;46.22;;;12.40;97.80;;;;;;5063340;28;22100;-63
2020/12/23 09:22:12;;;;;;;63.80;46.05;;;12.50;96.80;;;;;;5058516;28;20051;-63
2020/12/23 09:24:38;;;;;;;64.57;46.72;;;12.40;97.30;;;;;;5057108;28;20020;-63
2020/12/23 09:27:21;;;;;;;66.47;46.67;;;12.40;97.20;;;;;;5061433;28;20021;-63
2020/12/23 09:29:47;;;;;;;68.13;46.20;;;12.40;96.40;;;;;;5052094;28;20032;-63
2020/12/23 09:32:13;;;;;;;66.43;48.03;;;12.50;97.80;;;;;;5059867;28;20029;-64
2020/12/23 09:34:39;;;;;;;69.25;47.65;;;12.40;97.60;;;;;;5061028;28;20520;-63
2020/12/23 09:37:07;;;;;;;65.45;46.28;;;12.40;97.40;;;;;;5062819;28;20183;-63
2020/12/23 09:39:39;;;;;;;70.50;47.67;;;12.40;96.90;;;;;;5058496;28;20020;-63
2020/12/23 09:42:07;;;;;;;67.20;48.35;;;12.50;97.20;;;;;;5039590;28;20032;-64
2020/12/23 09:44:34;;;;;;;66.13;48.97;;;12.50;97.50;;;;;;5062093;28;20382;-63
2020/12/23 09:47:00;;;;;;;62.83;46.95;;;12.50;97.60;;;;;;5063207;28;20056;-63
2020/12/23 09:49:28;;;;;;;69.55;47.97;;;12.50;97.70;;;;;;5050029;28;20032;-63
2020/12/23 09:51:54;;;;;;;66.00;48.05;;;12.50;97.40;;;;;;5060807;28;20494;-63
2020/12/23 09:54:20;;;;;;;61.13;45.55;;;12.40;97.50;;;;;;5065175;28;20028;-63
2020/12/23 09:56:52;;;;;;;60.55;44.10;;;12.50;97.60;;;;;;5061131;28;20048;-63
2020/12/23 09:59:19;;;;;;;64.05;46.55;;;12.50;97.40;;;;;;5063140;28;20020;-63
2020/12/23 10:01:45;;;;;;;64.68;43.60;;;12.50;97.40;;;;;;5063572;28;20053;-64
2020/12/23 10:04:11;;;;;;;68.65;49.45;;;12.40;97.60;;;;;;5067291;28;20486;-63
2020/12/23 10:06:37;;;;;;;67.30;49.03;;;12.50;97.90;;;;;;5052640;28;20033;-63
2020/12/23 10:09:03;;;;;;;75.40;49.75;;;12.50;98.10;;;;;;5066631;28;20162;-63
2020/12/23 10:11:29;;;;;;;69.25;49.70;;;12.60;98.10;;;;;;5055367;28;20021;-64
2020/12/23 10:13:56;;;;;;;68.70;48.55;;;12.50;98.10;;;;;;5064636;28;20041;-63
2020/12/23 10:16:22;;;;;;;65.53;48.35;;;12.60;98.10;;;;;;5060610;28;20478;-63
2020/12/23 10:18:47;;;;;;;67.35;47.95;;;12.60;97.90;;;;;;5065304;28;20080;-63
2020/12/23 10:21:13;;;;;;;68.68;48.83;;;12.50;97.90;;;;;;5052792;28;20102;-64
2020/12/23 10:23:39;;;;;;;64.85;49.45;;;12.60;98.00;;;;;;5065359;28;20032;-63
2020/12/23 10:26:04;;;;;;;65.95;48.53;;;12.60;97.80;;;;;;5042330;28;20036;-63
2020/12/23 10:28:30;;;;;;;66.65;47.92;;;12.60;97.60;;;;;;5059793;28;20024;-63
2020/12/23 10:30:56;;;;;;;64.78;47.53;;;12.70;97.70;;;;;;5057337;28;20023;-63
2020/12/23 10:33:21;;;;;;;68.03;49.08;;;12.70;97.20;;;;;;5061898;28;20390;-64
2020/12/23 10:35:47;;;;;;;63.03;46.35;;;12.50;97.80;;;;;;5064105;28;20033;-63
2020/12/23 10:38:13;;;;;;;68.15;47.35;;;12.80;97.70;;;;;;5047669;28;20075;-63
2020/12/23 10:40:39;;;;;;;66.80;47.75;;;12.70;97.90;;;;;;5064337;28;20028;-64
2020/12/23 10:43:04;;;;;;;69.45;49.53;;;12.70;97.80;;;;;;5055012;28;20050;-64
2020/12/23 10:45:30;;;;;;;65.75;49.63;;;12.70;97.70;;;;;;5060206;28;20479;-64
2020/12/23 10:47:56;;;;;;;63.60;47.95;;;12.70;97.70;;;;;;5043425;28;20028;-64
2020/12/23 10:50:21;;;;;;;65.65;49.30;;;12.80;97.60;;;;;;5049660;28;20028;-64
2020/12/23 10:52:47;;;;;;;62.60;47.65;;;12.80;97.20;;;;;;5065690;28;20033;-64
2020/12/23 10:55:13;;;;;;;64.15;46.17;;;12.80;96.70;;;;;;5063592;28;20028;-63
2020/12/23 10:57:38;;;;;;;66.75;49.53;;;12.90;97.50;;;;;;5065714;28;20040;-63
2020/12/23 11:00:07;;;;;;;68.20;49.63;;;12.90;97.30;;;;;;5062566;28;20024;-64
2020/12/23 11:02:32;;;;;;;63.67;50.17;;;13.00;96.90;;;;;;5061165;28;20067;-63
2020/12/23 11:04:58;;;;;;;66.85;50.38;;;13.00;97.30;;;;;;5059043;28;20085;-64
2020/12/23 11:07:24;;;;;;;67.90;50.50;;;13.00;97.30;;;;;;5064779;28;20033;-64
2020/12/23 11:09:50;;;;;;;69.68;50.03;;;13.00;97.70;;;;;;5050842;28;20075;-64
2020/12/23 11:12:16;;;;;;;73.00;52.13;;;13.10;97.60;;;;;;5064447;28;20386;-64
2020/12/23 11:14:42;;;;;;;72.53;52.65;;;13.10;97.30;;;;;;5058172;28;20032;-63
2020/12/23 11:17:08;;;;;;;67.88;49.83;;;13.10;97.90;;;;;;5059094;28;20087;-63
2020/12/23 11:19:34;;;;;;;71.45;51.72;;;13.10;97.40;;;;;;5060630;28;20460;-63
2020/12/23 11:22:00;;;;;;;70.47;51.85;;;13.20;98.00;;;;;;5066259;28;20029;-64
2020/12/23 11:24:25;;;;;;;66.55;49.58;;;13.20;97.00;;;;;;5062924;28;20020;-64
2020/12/23 11:26:51;;;;;;;75.43;56.15;;;13.20;97.60;;;;;;5058857;28;20079;-64
2020/12/23 11:29:16;;;;;;;72.18;51.08;;;13.20;97.60;;;;;;5063604;28;20070;-64
2020/12/23 11:31:42;;;;;;;68.35;49.85;;;13.10;96.90;;;;;;5066194;28;20141;-63
2020/12/23 11:34:08;;;;;;;72.07;52.70;;;13.00;97.60;;;;;;5061878;28;20383;-64
2020/12/23 11:36:33;;;;;;;71.72;53.72;;;13.10;97.80;;;;;;5062019;28;20136;-63
2020/12/23 11:39:00;;;;;;;75.65;52.55;;;13.10;98.00;;;;;;5063836;28;20040;-63
2020/12/23 11:41:26;;;;;;;67.82;50.47;;;13.10;97.70;;;;;;5063886;28;20048;-64
2020/12/23 11:43:52;;;;;;;69.88;51.33;;;13.00;97.90;;;;;;5068662;28;20094;-63
2020/12/23 11:46:18;;;;;;;69.95;50.53;;;13.00;97.60;;;;;;5061840;28;20482;-63
2020/12/23 11:48:43;;;;;;;73.07;52.55;;;13.00;98.10;;;;;;5063445;28;20024;-63
2020/12/23 11:51:09;;;;;;;67.13;49.95;;;13.00;98.20;;;;;;5065200;28;20051;-64
2020/12/23 11:53:36;;;;;;;74.70;51.60;;;13.00;98.00;;;;;;5066965;28;20024;-63
2020/12/23 11:56:02;;;;;;;72.28;53.97;;;13.00;97.90;;;;;;5062645;28;20036;-64
2020/12/23 11:58:28;;;;;;;76.55;54.50;;;12.90;98.00;;;;;;5070567;28;20032;-64
2020/12/23 12:00:53;;;;;;;75.72;53.75;;;12.90;98.20;;;;;;5063598;28;20026;-64
2020/12/23 12:03:21;;;;;;;77.22;55.00;;;12.90;98.20;;;;;;5067642;28;20094;-63
2020/12/23 12:05:47;;;;;;;74.70;52.67;;;12.90;98.10;;;;;;5064885;28;20040;-64
2020/12/23 12:08:14;;;;;;;77.53;56.88;;;12.80;98.50;;;;;;5064119;28;20036;-63
2020/12/23 12:10:40;;;;;;;78.47;56.05;;;12.80;98.20;;;;;;5067163;28;20021;-64
2020/12/23 12:13:05;;;;;;;79.43;57.00;;;12.70;98.60;;;;;;5062232;28;20037;-64
2020/12/23 12:15:31;;;;;;;80.10;57.53;;;12.80;98.60;;;;;;5066817;28;20398;-64
2020/12/23 12:17:57;;;;;;;76.53;56.35;;;12.70;98.50;;;;;;5065211;28;20048;-63
2020/12/23 12:20:22;;;;;;;76.35;56.42;;;12.70;98.50;;;;;;5063759;28;20019;-63
2020/12/23 12:22:48;;;;;;;86.75;61.15;;;12.70;98.30;;;;;;5065271;28;20029;-64
2020/12/23 12:25:14;;;;;;;76.45;54.53;;;12.70;98.60;;;;;;5065709;28;20021;-63
2020/12/23 12:27:40;;;;;;;79.13;57.95;;;12.80;98.70;;;;;;5063482;28;20108;-63
2020/12/23 12:30:06;;;;;;;79.95;58.42;;;12.70;98.70;;;;;;5068025;28;20116;-63
2020/12/23 12:32:31;;;;;;;77.10;57.55;;;12.70;98.70;;;;;;5063104;28;20059;-64
2020/12/23 12:34:58;;;;;;;81.15;57.03;;;12.70;99.00;;;;;;5064094;28;20079;-63